createdAt,value
2022-08-03T00:00:34.978Z,101146.38
2022-08-03T00:02:36.744Z,101155.06
2022-08-03T00:04:38.838Z,101175.28
2022-08-03T00:06:40.781Z,101162.44
2022-08-03T00:08:42.500Z,101177.78
2022-08-03T00:10:44.344Z,101182.31
2022-08-03T00:12:46.220Z,101177.13
2022-08-03T00:14:47.956Z,101177.50
2022-08-03T00:16:49.957Z,101154.75
2022-08-03T00:18:52.304Z,101169.09
2022-08-03T00:20:54.098Z,101163.75
2022-08-03T00:22:56.021Z,101175.44
2022-08-03T00:24:57.803Z,101165.44
2022-08-03T00:26:59.760Z,101170.47
2022-08-03T00:29:01.673Z,101174.13
2022-08-03T00:31:03.548Z,101151.41
2022-08-03T00:33:05.611Z,101169.63
2022-08-03T00:35:14.782Z,101161.75
2022-08-03T00:37:40.796Z,101172.94
2022-08-03T00:39:43.704Z,101163.75
2022-08-03T00:41:45.488Z,101178.97
2022-08-03T00:43:47.290Z,101180.78
2022-08-03T00:45:49.110Z,101180.31
2022-08-03T00:47:53.324Z,101176.13
2022-08-03T00:49:55.152Z,101170.94
2022-08-03T00:51:56.915Z,101178.28
2022-08-03T00:53:58.987Z,101166.59
2022-08-03T00:56:00.852Z,101156.25
2022-08-03T00:58:03.618Z,101182.63
2022-08-03T01:00:07.939Z,101174.44
2022-08-03T01:02:09.699Z,101174.44
2022-08-03T01:04:11.539Z,101176.81
2022-08-03T01:06:19.483Z,101167.94
2022-08-03T01:08:46.975Z,101176.13
2022-08-03T01:11:10.726Z,101147.22
2022-08-03T01:14:00.314Z,101172.63
2022-08-03T01:16:15.633Z,101164.06
2022-08-03T01:19:02.125Z,101163.06
2022-08-03T01:21:10.474Z,101167.56
2022-08-03T01:23:42.617Z,101163.41
2022-08-03T01:25:55.442Z,101166.09
2022-08-03T01:27:57.182Z,101166.91
2022-08-03T01:30:05.160Z,101171.75
2022-08-03T01:33:00.339Z,101141.66
2022-08-03T01:34:50.970Z,101171.19
2022-08-03T01:36:56.780Z,101173.25
2022-08-03T01:39:01.922Z,101159.03
2022-08-03T01:41:07.622Z,101146.00
2022-08-03T01:43:14.953Z,101164.22
2022-08-03T01:45:38.763Z,101171.88
2022-08-03T01:47:42.271Z,101168.22
2022-08-03T01:49:45.757Z,101169.22
2022-08-03T01:52:02.681Z,101153.31
2022-08-03T01:54:08.351Z,101161.19
2022-08-03T01:56:10.206Z,101167.03
2022-08-03T01:58:14.663Z,101163.66
2022-08-03T02:00:16.945Z,101149.31
2022-08-03T02:02:32.763Z,101155.63
2022-08-03T02:04:38.735Z,101138.25
2022-08-03T02:07:01.911Z,101166.69
2022-08-03T02:09:06.056Z,101170.34
2022-08-03T02:11:08.312Z,101162.69
2022-08-03T02:13:10.890Z,101168.34
2022-08-03T02:15:15.432Z,101181.22
2022-08-03T02:17:18.420Z,101174.22
2022-08-03T02:19:42.503Z,101173.56
2022-08-03T02:21:56.510Z,101170.38
2022-08-03T02:24:04.091Z,101136.44
2022-08-03T02:26:09.186Z,101167.03
2022-08-03T02:28:16.536Z,101172.38
2022-08-03T02:30:19.777Z,101149.31
2022-08-03T02:32:28.018Z,101160.00
2022-08-03T02:34:31.592Z,101170.53
2022-08-03T02:36:38.062Z,101165.97
2022-08-03T02:38:42.795Z,101176.03
2022-08-03T02:40:46.312Z,101170.16
2022-08-03T02:42:51.801Z,101176.50
2022-08-03T02:44:57.240Z,101178.16
2022-08-03T02:47:09.549Z,101133.81
2022-08-03T02:49:35.341Z,101178.91
2022-08-03T02:51:36.989Z,101157.69
2022-08-03T02:53:40.816Z,101177.81
2022-08-03T02:55:45.796Z,101179.41
2022-08-03T02:57:50.436Z,101182.88
2022-08-03T02:59:53.416Z,101182.88
2022-08-03T03:01:55.926Z,101171.13
2022-08-03T03:03:58.362Z,101153.81
2022-08-03T03:06:01.191Z,101165.69
2022-08-03T03:08:18.004Z,101160.13
2022-08-03T03:10:24.926Z,101175.16
2022-08-03T03:12:27.949Z,101183.84
2022-08-03T03:14:33.626Z,101158.34
2022-08-03T03:16:36.562Z,101140.13
2022-08-03T03:18:39.687Z,101174.91
2022-08-03T03:20:41.939Z,101173.94
2022-08-03T03:22:45.376Z,101171.91
2022-08-03T03:24:47.811Z,101171.31
2022-08-03T03:26:50.119Z,101176.09
2022-08-03T03:28:52.508Z,101178.22
2022-08-03T03:30:54.432Z,101166.72
2022-08-03T03:32:58.317Z,101153.53
2022-08-03T03:35:00.548Z,101147.66
2022-08-03T03:37:02.499Z,101146.69
2022-08-03T03:39:15.445Z,101146.41
2022-08-03T03:41:17.857Z,101139.84
2022-08-03T03:43:23.943Z,101177.03
2022-08-03T03:45:26.719Z,101172.38
2022-08-03T03:47:32.147Z,101137.56
2022-08-03T03:49:34.868Z,101170.16
2022-08-03T03:51:36.989Z,101159.13
2022-08-03T03:53:38.778Z,101162.97
2022-08-03T03:55:57.812Z,101176.69
2022-08-03T03:58:03.495Z,101173.50
2022-08-03T04:00:05.902Z,101184.34
2022-08-03T04:02:09.352Z,101158.72
2022-08-03T04:04:11.373Z,101184.00
2022-08-03T04:06:13.989Z,101151.69
2022-08-03T04:08:18.934Z,101194.16
2022-08-03T04:10:23.907Z,101193.69
2022-08-03T04:12:28.376Z,101199.91
2022-08-03T04:14:34.741Z,101199.06
2022-08-03T04:16:43.625Z,101178.19
2022-08-03T04:18:52.682Z,101185.06
2022-08-03T04:20:55.835Z,101200.47
2022-08-03T04:23:00.225Z,101185.06
2022-08-03T04:25:05.429Z,101182.69
2022-08-03T04:27:11.547Z,101210.81
2022-08-03T04:29:14.751Z,101180.25
2022-08-03T04:31:18.024Z,101209.50
2022-08-03T04:33:21.821Z,101193.69
2022-08-03T04:36:02.222Z,101210.88
2022-08-03T04:37:53.581Z,101215.56
2022-08-03T04:39:59.354Z,101209.53
2022-08-03T04:42:08.667Z,101212.50
2022-08-03T04:44:13.499Z,101211.28
2022-08-03T04:46:16.326Z,101214.31
2022-08-03T04:48:19.260Z,101207.00
2022-08-03T04:50:22.140Z,101214.56
2022-08-03T04:52:24.488Z,101216.50
2022-08-03T04:54:26.366Z,101216.66
2022-08-03T04:56:28.160Z,101217.75
2022-08-03T04:58:29.967Z,101218.41
2022-08-03T05:00:32.389Z,101226.03
2022-08-03T05:02:34.221Z,101213.03
2022-08-03T05:04:36.057Z,101225.66
2022-08-03T05:06:47.915Z,101226.19
2022-08-03T05:08:50.851Z,101228.47
2022-08-03T05:10:52.812Z,101230.69
2022-08-03T05:12:54.676Z,101236.25
2022-08-03T05:14:56.415Z,101221.28
2022-08-03T05:16:58.202Z,101224.56
2022-08-03T05:19:00.075Z,101230.22
2022-08-03T05:21:02.047Z,101219.31
2022-08-03T05:23:03.894Z,101220.75
2022-08-03T05:25:05.968Z,101217.84
2022-08-03T05:27:07.701Z,101231.91
2022-08-03T05:29:09.501Z,101243.81
2022-08-03T05:31:11.552Z,101241.97
2022-08-03T05:33:13.314Z,101238.03
2022-08-03T05:35:57.883Z,101239.94
2022-08-03T05:37:37.076Z,101233.81
2022-08-03T05:39:38.909Z,101230.22
2022-08-03T05:41:40.678Z,101242.94
2022-08-03T05:43:42.503Z,101228.81
2022-08-03T05:45:44.382Z,101249.41
2022-08-03T05:47:46.338Z,101242.16
2022-08-03T05:49:51.742Z,101221.38
2022-08-03T05:52:00.496Z,101234.25
2022-08-03T05:54:13.831Z,101245.47
2022-08-03T05:56:16.791Z,101232.97
2022-08-03T05:58:18.695Z,101258.78
2022-08-03T06:00:20.484Z,101251.28
2022-08-03T06:02:24.106Z,101258.78
2022-08-03T06:04:25.998Z,101241.91
2022-08-03T06:06:32.093Z,101259.13
2022-08-03T06:08:34.916Z,101247.81
2022-08-03T06:10:38.273Z,101242.69
2022-08-03T06:12:40.154Z,101253.50
2022-08-03T06:14:42.294Z,101261.69
2022-08-03T06:16:44.110Z,101229.66
2022-08-03T06:18:45.950Z,101255.53
2022-08-03T06:20:49.398Z,101243.66
2022-08-03T06:23:00.455Z,101249.69
2022-08-03T06:25:04.009Z,101252.69
2022-08-03T06:27:07.010Z,101246.03
2022-08-03T06:29:08.853Z,101262.91
2022-08-03T06:31:11.972Z,101228.81
2022-08-03T06:33:13.770Z,101256.66
2022-08-03T06:35:15.533Z,101260.00
2022-08-03T06:37:17.353Z,101226.69
2022-08-03T06:39:19.326Z,101246.06
2022-08-03T06:41:21.047Z,101251.06
2022-08-03T06:43:23.033Z,101248.19
2022-08-03T06:45:25.183Z,101253.16
2022-08-03T06:47:33.668Z,101257.94
2022-08-03T06:49:35.662Z,101255.41
2022-08-03T06:52:03.051Z,101259.50
2022-08-03T06:53:59.542Z,101243.06
2022-08-03T06:56:01.404Z,101258.94
2022-08-03T06:58:03.728Z,101251.41
2022-08-03T07:00:11.861Z,101259.69
2022-08-03T07:02:19.061Z,101263.19
2022-08-03T07:04:21.449Z,101254.03
2022-08-03T07:06:23.186Z,101267.53
2022-08-03T07:08:33.725Z,101264.25
2022-08-03T07:10:36.557Z,101258.09
2022-08-03T07:12:55.606Z,101258.59
2022-08-03T07:15:02.258Z,101268.56
2022-08-03T07:17:11.461Z,101270.69
2022-08-03T07:19:13.667Z,101268.16
2022-08-03T07:21:15.560Z,101266.03
2022-08-03T07:23:18.927Z,101265.91
2022-08-03T07:25:21.297Z,101263.94
2022-08-03T07:27:23.184Z,101268.81
2022-08-03T07:29:25.239Z,101259.47
2022-08-03T07:31:27.267Z,101266.91
2022-08-03T07:33:36.387Z,101247.72
2022-08-03T07:35:38.882Z,101256.19
2022-08-03T07:37:40.622Z,101249.63
2022-08-03T07:39:55.928Z,101254.13
2022-08-03T07:41:57.639Z,101265.66
2022-08-03T07:43:59.376Z,101253.25
2022-08-03T07:46:03.062Z,101231.47
2022-08-03T07:48:10.109Z,101253.19
2022-08-03T07:50:13.839Z,101256.66
2022-08-03T07:52:15.839Z,101264.69
2022-08-03T07:54:17.735Z,101242.16
2022-08-03T07:56:19.478Z,101247.75
2022-08-03T07:58:24.183Z,101255.94
2022-08-03T08:00:26.606Z,101249.56
2022-08-03T08:02:28.357Z,101258.28
2022-08-03T08:04:30.167Z,101259.84
2022-08-03T08:06:32.152Z,101262.31
2022-08-03T08:08:33.903Z,101263.28
2022-08-03T08:10:36.001Z,101257.06
2022-08-03T08:12:39.250Z,101262.38
2022-08-03T08:14:40.837Z,101260.28
2022-08-03T08:16:42.686Z,101248.75
2022-08-03T08:18:44.598Z,101252.22
2022-08-03T08:20:46.422Z,101257.34
2022-08-03T08:22:48.400Z,101259.22
2022-08-03T08:24:52.177Z,101265.19
2022-08-03T08:26:54.213Z,101259.13
2022-08-03T08:28:56.210Z,101258.31
2022-08-03T08:30:57.998Z,101260.75
2022-08-03T08:32:59.975Z,101258.44
2022-08-03T08:35:02.023Z,101248.00
2022-08-03T08:37:04.008Z,101249.78
2022-08-03T08:39:05.788Z,101260.25
2022-08-03T08:41:08.213Z,101252.53
2022-08-03T08:43:10.337Z,101245.63
2022-08-03T08:45:12.112Z,101243.31
2022-08-03T08:47:14.644Z,101258.22
2022-08-03T08:49:22.977Z,101265.19
2022-08-03T08:51:54.827Z,101256.47
2022-08-03T08:53:53.597Z,101260.56
2022-08-03T08:56:00.685Z,101259.78
2022-08-03T08:58:05.872Z,101264.34
2022-08-03T09:00:10.562Z,101253.66
2022-08-03T09:02:12.573Z,101241.00
2022-08-03T09:04:14.459Z,101256.38
2022-08-03T09:06:16.683Z,101221.16
2022-08-03T09:08:19.115Z,101249.81
2022-08-03T09:10:21.077Z,101249.16
2022-08-03T09:12:40.876Z,101252.06
2022-08-03T09:15:00.769Z,101257.00
2022-08-03T09:17:05.593Z,101230.03
2022-08-03T09:19:13.754Z,101233.69
2022-08-03T09:21:33.291Z,101252.47
2022-08-03T09:24:02.162Z,101253.50
2022-08-03T09:26:05.679Z,101250.88
2022-08-03T09:28:52.706Z,101245.00
2022-08-03T09:30:39.972Z,101241.59
2022-08-03T09:32:41.945Z,101231.81
2022-08-03T09:34:43.689Z,101229.91
2022-08-03T09:36:47.328Z,101242.25
2022-08-03T09:39:13.432Z,101246.44
2022-08-03T09:41:18.889Z,101248.09
2022-08-03T09:43:21.484Z,101235.06
2022-08-03T09:45:27.315Z,101228.75
2022-08-03T09:47:31.157Z,101241.44
2022-08-03T09:49:33.197Z,101205.47
2022-08-03T09:52:32.074Z,101247.13
2022-08-03T09:53:58.819Z,101246.19
2022-08-03T09:56:35.217Z,101243.31
2022-08-03T09:58:26.899Z,101234.63
2022-08-03T10:00:28.809Z,101238.28
2022-08-03T10:02:30.817Z,101233.56
2022-08-03T10:04:32.831Z,101237.19
2022-08-03T10:06:34.555Z,101236.22
2022-08-03T10:08:36.317Z,101229.06
2022-08-03T10:10:45.395Z,101224.78
2022-08-03T10:12:47.194Z,101221.03
2022-08-03T10:14:49.447Z,101225.09
2022-08-03T10:16:51.197Z,101222.16
2022-08-03T10:18:52.933Z,101202.63
2022-08-03T10:21:03.336Z,101229.22
2022-08-03T10:23:05.731Z,101220.16
2022-08-03T10:25:09.813Z,101236.03
2022-08-03T10:27:13.517Z,101224.94
2022-08-03T10:29:22.729Z,101234.72
2022-08-03T10:31:25.373Z,101236.41
2022-08-03T10:33:51.060Z,101229.78
2022-08-03T10:35:57.420Z,101227.88
2022-08-03T10:38:05.984Z,101233.16
2022-08-03T10:40:10.052Z,101228.59
2022-08-03T10:42:14.696Z,101221.22
2022-08-03T10:44:21.554Z,101224.56
2022-08-03T10:46:23.709Z,101201.81
2022-08-03T10:48:26.221Z,101204.19
2022-08-03T10:50:28.687Z,101217.44
2022-08-03T10:52:33.710Z,101218.69
2022-08-03T10:54:44.650Z,101218.09
2022-08-03T10:56:49.774Z,101217.09
2022-08-03T10:58:57.938Z,101210.94
2022-08-03T11:01:00.587Z,101217.13
2022-08-03T11:03:11.648Z,101212.94
2022-08-03T11:05:27.837Z,101198.94
2022-08-03T11:07:29.864Z,101196.03
2022-08-03T11:09:42.576Z,101199.13
2022-08-03T11:11:47.140Z,101208.53
2022-08-03T11:14:02.216Z,101205.84
2022-08-03T11:16:21.994Z,101197.47
2022-08-03T11:18:26.831Z,101206.69
2022-08-03T11:20:52.198Z,101210.44
2022-08-03T11:22:54.077Z,101210.69
2022-08-03T11:24:55.856Z,101213.84
2022-08-03T11:27:15.979Z,101212.94
2022-08-03T11:29:31.077Z,101206.38
2022-08-03T11:31:49.160Z,101205.53
2022-08-03T11:34:09.489Z,101210.75
2022-08-03T11:36:11.516Z,101194.50
2022-08-03T11:38:13.454Z,101166.97
2022-08-03T11:40:32.959Z,101180.59
2022-08-03T11:42:34.662Z,101194.84
2022-08-03T11:44:42.874Z,101192.28
2022-08-03T11:46:49.523Z,101187.81
2022-08-03T11:48:51.353Z,101165.44
2022-08-03T11:50:53.211Z,101187.00
2022-08-03T11:52:55.114Z,101175.59
2022-08-03T11:54:57.513Z,101186.56
2022-08-03T11:56:59.756Z,101164.59
2022-08-03T11:59:18.662Z,101162.28
2022-08-03T12:01:24.908Z,101174.03
2022-08-03T12:03:33.189Z,101176.94
2022-08-03T12:05:52.917Z,101131.56
2022-08-03T12:08:03.887Z,101169.09
2022-08-03T12:10:13.019Z,101177.22
2022-08-03T12:12:16.547Z,101167.28
2022-08-03T12:14:49.275Z,101181.69
2022-08-03T12:16:47.761Z,101172.63
2022-08-03T12:19:16.129Z,101172.41
2022-08-03T12:21:17.954Z,101159.56
2022-08-03T12:23:20.303Z,101166.25
2022-08-03T12:25:38.748Z,101141.63
2022-08-03T12:27:41.869Z,101156.22
2022-08-03T12:29:43.767Z,101168.69
2022-08-03T12:32:00.589Z,101147.22
2022-08-03T12:34:05.863Z,101169.56
2022-08-03T12:36:10.930Z,101161.38
2022-08-03T12:38:13.064Z,101164.22
2022-08-03T12:40:19.292Z,101150.41
2022-08-03T12:42:29.941Z,101140.00
2022-08-03T12:44:33.590Z,101151.50
2022-08-03T12:46:45.360Z,101153.31
2022-08-03T12:49:06.753Z,101147.94
2022-08-03T12:51:10.644Z,101139.41
2022-08-03T12:53:12.376Z,101143.56
2022-08-03T12:55:20.361Z,101140.13
2022-08-03T12:57:22.231Z,101126.41
2022-08-03T12:59:25.623Z,101130.25
2022-08-03T13:01:37.650Z,101140.31
2022-08-03T13:03:45.779Z,101138.84
2022-08-03T13:05:51.680Z,101126.25
2022-08-03T13:07:53.508Z,101129.72
2022-08-03T13:09:56.615Z,101111.94
2022-08-03T13:12:13.389Z,101140.84
2022-08-03T13:14:16.780Z,101140.78
2022-08-03T13:16:22.947Z,101132.28
2022-08-03T13:18:24.976Z,101133.94
2022-08-03T13:20:26.766Z,101129.28
2022-08-03T13:22:28.534Z,101116.81
2022-08-03T13:24:31.694Z,101127.00
2022-08-03T13:26:33.750Z,101122.00
2022-08-03T13:28:35.587Z,101127.28
2022-08-03T13:30:38.057Z,101130.16
2022-08-03T13:32:40.193Z,101126.00
2022-08-03T13:34:42.405Z,101117.41
2022-08-03T13:37:07.959Z,101119.41
2022-08-03T13:39:05.948Z,101109.25
2022-08-03T13:41:11.041Z,101117.44
2022-08-03T13:43:12.764Z,101107.66
2022-08-03T13:45:14.603Z,101083.56
2022-08-03T13:47:16.423Z,101112.03
2022-08-03T13:49:18.270Z,101096.41
2022-08-03T13:51:22.602Z,101085.00
2022-08-03T13:53:24.733Z,101105.38
2022-08-03T13:55:26.749Z,101096.84
2022-08-03T13:58:04.379Z,101106.13
2022-08-03T13:59:50.800Z,101100.75
2022-08-03T14:01:55.712Z,101111.22
2022-08-03T14:03:57.739Z,101106.34
2022-08-03T14:05:59.500Z,101080.72
2022-08-03T14:08:04.821Z,101102.91
2022-08-03T14:10:07.288Z,101100.16
2022-08-03T14:12:10.352Z,101099.72
2022-08-03T14:14:13.325Z,101096.31
2022-08-03T14:16:17.016Z,101084.31
2022-08-03T14:18:28.839Z,101097.44
2022-08-03T14:20:38.926Z,101090.84
2022-08-03T14:22:50.798Z,101081.63
2022-08-03T14:24:52.787Z,101072.53
2022-08-03T14:27:00.153Z,101090.50
2022-08-03T14:29:08.805Z,101078.66
2022-08-03T14:31:15.476Z,101085.19
2022-08-03T14:33:33.029Z,101085.50
2022-08-03T14:35:34.841Z,101057.66
2022-08-03T14:37:36.645Z,101062.97
2022-08-03T14:42:00.212Z,101064.75
2022-08-03T14:44:02.553Z,101076.25
2022-08-03T14:46:04.461Z,101057.41
2022-08-03T14:50:29.094Z,101086.13
2022-08-03T14:50:36.250Z,101078.31
2022-08-03T14:52:42.762Z,101077.91
2022-08-03T14:54:45.583Z,101070.56
2022-08-03T14:56:47.354Z,101070.59
2022-08-03T14:58:49.117Z,101068.19
2022-08-03T15:00:54.137Z,101058.84
2022-08-03T15:02:55.911Z,101067.06
2022-08-03T15:04:57.816Z,101060.94
2022-08-03T15:06:59.702Z,101065.84
2022-08-03T15:09:21.501Z,101056.19
2022-08-03T15:11:23.155Z,101066.09
2022-08-03T15:13:25.032Z,101048.63
2022-08-03T15:15:26.754Z,101048.56
2022-08-03T15:17:28.651Z,101051.03
2022-08-03T15:20:00.265Z,101053.50
2022-08-03T15:21:52.388Z,101048.66
2022-08-03T15:23:54.122Z,101039.53
2022-08-03T15:26:06.471Z,101042.75
2022-08-03T15:28:18.096Z,101052.44
2022-08-03T15:30:19.906Z,101036.09
2022-08-03T15:32:21.780Z,101034.75
2022-08-03T15:34:23.502Z,101042.72
2022-08-03T15:36:25.241Z,101041.03
2022-08-03T15:38:27.067Z,101041.63
2022-08-03T15:40:28.913Z,101036.97
2022-08-03T15:42:32.914Z,101042.50
2022-08-03T15:44:34.753Z,101043.00
2022-08-03T15:46:36.802Z,101019.53
2022-08-03T15:48:39.606Z,101027.13
2022-08-03T15:50:41.499Z,101037.56
2022-08-03T15:52:45.529Z,101037.28
2022-08-03T15:54:47.570Z,101032.09
2022-08-03T15:56:49.399Z,101038.69
2022-08-03T15:59:03.693Z,101028.78
2022-08-03T16:01:17.723Z,101030.09
2022-08-03T16:03:21.643Z,101026.47
2022-08-03T16:05:23.535Z,101025.97
2022-08-03T16:07:25.697Z,101033.41
2022-08-03T16:09:43.224Z,101010.72
2022-08-03T16:11:45.528Z,101025.97
2022-08-03T16:14:13.726Z,101029.94
2022-08-03T16:16:09.427Z,101012.19
2022-08-03T16:18:11.168Z,101026.50
2022-08-03T16:20:29.257Z,101013.56
2022-08-03T16:22:40.748Z,101025.91
2022-08-03T16:24:45.187Z,101023.22
2022-08-03T16:26:47.442Z,101026.38
2022-08-03T16:28:49.308Z,101027.38
2022-08-03T16:30:51.076Z,101015.25
2022-08-03T16:32:52.920Z,101004.25
2022-08-03T16:34:54.833Z,101021.56
2022-08-03T16:36:56.611Z,101000.56
2022-08-03T16:38:58.678Z,101017.78
2022-08-03T16:41:00.536Z,100981.56
2022-08-03T16:43:10.016Z,101023.06
2022-08-03T16:45:20.813Z,101022.09
2022-08-03T16:47:22.883Z,101013.38
2022-08-03T16:49:53.063Z,101007.00
2022-08-03T16:51:50.350Z,100995.59
2022-08-03T16:54:07.195Z,101015.94
2022-08-03T16:56:10.674Z,101024.38
2022-08-03T16:58:13.031Z,100996.31
2022-08-03T17:00:33.574Z,100996.63
2022-08-03T17:02:36.734Z,101025.91
2022-08-03T17:04:40.250Z,101029.22
2022-08-03T17:06:45.069Z,101030.88
2022-08-03T17:08:52.344Z,101029.81
2022-08-03T17:10:57.357Z,101022.09
2022-08-03T17:12:59.071Z,101033.75
2022-08-03T17:15:01.331Z,101030.44
2022-08-03T17:17:08.369Z,101031.50
2022-08-03T17:19:18.478Z,101031.97
2022-08-03T17:21:26.477Z,101037.38
2022-08-03T17:23:52.162Z,101031.31
2022-08-03T17:26:02.263Z,101024.28
2022-08-03T17:28:48.658Z,101031.09
2022-08-03T17:30:28.470Z,101021.38
2022-08-03T17:32:42.420Z,101034.16
2022-08-03T17:34:46.681Z,101038.19
2022-08-03T17:37:05.359Z,101042.41
2022-08-03T17:39:07.469Z,101025.13
2022-08-03T17:41:11.245Z,101049.81
2022-08-03T17:44:14.207Z,101054.78
2022-08-03T17:45:42.286Z,101056.63
2022-08-03T17:47:57.493Z,101057.19
2022-08-03T17:49:59.943Z,101062.53
2022-08-03T17:52:04.774Z,101034.13
2022-08-03T17:54:30.079Z,101063.66
2022-08-03T17:56:57.261Z,101044.00
2022-08-03T17:59:52.110Z,101064.72
2022-08-03T18:02:29.858Z,101070.69
2022-08-03T18:04:38.237Z,101058.00
2022-08-03T18:06:55.800Z,101063.59
2022-08-03T18:08:59.959Z,101065.69
2022-08-03T18:13:58.723Z,101054.41
2022-08-03T18:16:02.494Z,101076.28
2022-08-03T18:18:10.278Z,101075.00
2022-08-03T18:20:34.603Z,101077.72
2022-08-03T18:22:34.894Z,101074.81
2022-08-03T18:24:37.727Z,101070.47
2022-08-03T18:26:42.608Z,101047.84
2022-08-03T18:28:53.108Z,101068.88
2022-08-03T18:30:55.402Z,101074.03
2022-08-03T18:33:01.150Z,101071.34
2022-08-03T18:35:19.962Z,101057.75
2022-08-03T18:37:26.622Z,101079.25
2022-08-03T18:39:28.817Z,101065.78
2022-08-03T18:41:34.566Z,101090.56
2022-08-03T18:43:46.629Z,101091.38
2022-08-03T18:45:57.734Z,101091.88
2022-08-03T18:48:30.021Z,101092.31
2022-08-03T18:50:39.051Z,101093.19
2022-08-03T18:52:52.920Z,101096.63
2022-08-03T18:55:33.404Z,101096.69
2022-08-03T18:57:47.281Z,101081.78
2022-08-03T19:00:24.231Z,101110.91
2022-08-03T19:02:41.721Z,101104.44
2022-08-03T19:04:54.168Z,101095.63
2022-08-03T19:07:03.135Z,101112.78
2022-08-03T19:09:06.582Z,101089.72
2022-08-03T19:11:28.175Z,101107.44
2022-08-03T19:13:55.753Z,101111.13
2022-08-03T19:16:02.704Z,101080.66
2022-08-03T19:18:10.461Z,101107.25
2022-08-03T19:20:12.975Z,101111.72
2022-08-03T19:22:15.941Z,101103.69
2022-08-03T19:24:21.988Z,101111.44
2022-08-03T19:26:30.856Z,101112.13
2022-08-03T19:28:34.891Z,101098.88
2022-08-03T19:30:39.429Z,101101.63
2022-08-03T19:32:48.182Z,101082.81
2022-08-03T19:34:51.509Z,101105.84
2022-08-03T19:36:55.240Z,101104.22
2022-08-03T19:38:59.658Z,101079.72
2022-08-03T19:41:04.261Z,101110.81
2022-08-03T19:43:20.693Z,101111.03
2022-08-03T19:46:05.217Z,101121.38
2022-08-03T19:47:56.390Z,101114.13
2022-08-03T19:50:13.968Z,101115.16
2022-08-03T19:52:20.566Z,101115.56
2022-08-03T19:54:32.124Z,101083.22
2022-08-03T19:56:34.757Z,101116.47
2022-08-03T19:58:37.528Z,101121.50
2022-08-03T20:00:40.792Z,101112.16
2022-08-03T20:02:50.995Z,101119.69
2022-08-03T20:04:53.485Z,101096.47
2022-08-03T20:06:58.105Z,101126.13
2022-08-03T20:09:00.091Z,101102.66
2022-08-03T20:11:02.343Z,101112.06
2022-08-03T20:13:08.014Z,101117.22
2022-08-03T20:15:10.088Z,101120.38
2022-08-03T20:17:12.308Z,101099.56
2022-08-03T20:19:22.819Z,101124.94
2022-08-03T20:21:27.640Z,101110.38
2022-08-03T20:23:38.095Z,101124.53
2022-08-03T20:26:00.636Z,101125.78
2022-08-03T20:28:14.021Z,101121.41
2022-08-03T20:30:16.666Z,101122.09
2022-08-03T20:32:24.694Z,101126.66
2022-08-03T20:34:26.763Z,101121.47
2022-08-03T20:36:29.027Z,101130.81
2022-08-03T20:38:32.226Z,101124.78
2022-08-03T20:40:45.803Z,101121.50
2022-08-03T20:42:47.717Z,101128.31
2022-08-03T20:45:04.482Z,101133.75
2022-08-03T20:47:10.532Z,101123.16
2022-08-03T20:49:12.117Z,101136.66
2022-08-03T20:51:19.597Z,101121.72
2022-08-03T20:53:57.442Z,101118.81
2022-08-03T20:55:53.763Z,101081.22
2022-08-03T20:58:04.912Z,101114.66
2022-08-03T21:00:08.303Z,101132.72
2022-08-03T21:02:13.773Z,101122.53
2022-08-03T21:04:22.043Z,101114.22
2022-08-03T21:06:28.853Z,101134.97
2022-08-03T21:08:31.299Z,101111.28
2022-08-03T21:10:37.925Z,101130.16
2022-08-03T21:12:48.132Z,101137.44
2022-08-03T21:13:03.947Z,101064.59
2022-08-03T21:15:01.699Z,101128.50
2022-08-03T21:17:14.017Z,101128.28
2022-08-03T21:19:22.177Z,101134.09
2022-08-03T21:21:24.432Z,101135.50
2022-08-03T21:23:45.392Z,101119.13
2022-08-03T21:25:51.722Z,101128.25
2022-08-03T21:27:53.477Z,101128.22
2022-08-03T21:29:55.606Z,101131.50
2022-08-03T21:31:59.430Z,101137.34
2022-08-03T21:34:04.860Z,101141.50
2022-08-03T21:36:07.346Z,101119.69
2022-08-03T21:38:09.271Z,101139.00
2022-08-03T21:40:13.156Z,101144.59
2022-08-03T21:42:14.890Z,101143.94
2022-08-03T21:44:17.914Z,101145.16
2022-08-03T21:46:33.141Z,101139.09
2022-08-03T21:48:38.525Z,101145.91
2022-08-03T21:50:42.320Z,101138.19
2022-08-03T21:52:46.379Z,101151.28
2022-08-03T21:54:49.940Z,101147.69
2022-08-03T21:56:56.667Z,101141.81
2022-08-03T21:59:06.138Z,101141.88
2022-08-03T22:01:09.508Z,101144.97
2022-08-03T22:03:17.374Z,101150.16
2022-08-03T22:05:28.975Z,101139.34
2022-08-03T22:07:42.532Z,101148.03
2022-08-03T22:09:51.045Z,101132.47
2022-08-03T22:11:53.637Z,101144.94
2022-08-03T22:13:55.348Z,101143.72
2022-08-03T22:15:57.617Z,101125.81
2022-08-03T22:17:59.892Z,101139.53
2022-08-03T22:20:02.178Z,101117.88
2022-08-03T22:22:04.708Z,101139.06
2022-08-03T22:24:07.395Z,101124.09
2022-08-03T22:26:15.290Z,101143.19
2022-08-03T22:28:17.091Z,101122.56
2022-08-03T22:30:19.873Z,101143.75
2022-08-03T22:32:21.719Z,101143.13
2022-08-03T22:34:26.275Z,101118.97
2022-08-03T22:36:30.163Z,101151.34
2022-08-03T22:38:32.808Z,101133.06
2022-08-03T22:40:34.720Z,101147.97
2022-08-03T22:42:37.350Z,101150.41
2022-08-03T22:44:40.347Z,101150.34
2022-08-03T22:46:42.707Z,101150.28
2022-08-03T22:48:46.746Z,101145.53
2022-08-03T22:50:48.941Z,101149.31
2022-08-03T22:52:51.187Z,101149.75
2022-08-03T22:54:55.566Z,101135.03
2022-08-03T22:56:58.454Z,101143.00
2022-08-03T22:59:00.501Z,101144.22
2022-08-03T23:01:08.088Z,101134.16
2022-08-03T23:03:10.538Z,101148.03
2022-08-03T23:06:01.980Z,101124.88
2022-08-03T23:07:49.609Z,101145.28
2022-08-03T23:09:51.893Z,101135.13
2022-08-03T23:11:55.757Z,101145.09
2022-08-03T23:13:59.762Z,101152.34
2022-08-03T23:16:04.651Z,101136.75
2022-08-03T23:18:07.557Z,101153.13
2022-08-03T23:20:09.803Z,101141.44
2022-08-03T23:22:17.096Z,101143.53
2022-08-03T23:24:36.333Z,101147.44
2022-08-03T23:26:38.545Z,101151.59
2022-08-03T23:28:45.424Z,101148.06
2022-08-03T23:30:50.156Z,101150.31
2022-08-03T23:32:54.802Z,101141.16
2022-08-03T23:35:00.826Z,101152.09
2022-08-03T23:37:05.596Z,101144.16
2022-08-03T23:39:08.704Z,101141.72
2022-08-03T23:41:10.920Z,101145.84
2022-08-03T23:43:18.413Z,101146.47
2022-08-03T23:45:37.966Z,101143.53
2022-08-03T23:47:46.999Z,101140.41
2022-08-03T23:49:49.646Z,101140.41
2022-08-03T23:52:29.067Z,101141.59
2022-08-03T23:55:12.349Z,101146.75
2022-08-03T23:57:52.560Z,101147.69
